Time;durP1;ratioP1;P1;durP2;ratioP2;P2;SDS_P1;SDS_P2;PMS_P1;PMS_P2;Temp;Humidity;BMP_temperature;BMP_pressure;BME280_temperature;BME280_humidity;BME280_pressure;Samples;Min_cycle;Max_cycle;Signal;HPM_P1;HPM_P2
2023/01/16 00:00:00;;;;;;;1.8;1.8;;;;;;;4.8;100.0;99400;;;;
2023/01/16 00:01:00;;;;;;;1.8;1.8;;;;;;;4.8;100.0;99400;;;;
2023/01/16 00:02:01;;;;;;;1.9;1.9;;;;;;;4.8;100.0;99400;;;;
2023/01/16 00:03:00;;;;;;;1.9;1.9;;;;;;;4.8;100.0;99400;;;;
2023/01/16 00:04:00;;;;;;;1.9;1.9;;;;;;;4.8;100.0;99400;;;;
2023/01/16 00:05:00;;;;;;;1.9;1.9;;;;;;;4.8;100.0;99400;;;;
2023/01/16 00:06:00;;;;;;;1.9;1.9;;;;;;;4.8;100.0;99390;;;;
2023/01/16 00:07:00;;;;;;;1.9;1.9;;;;;;;4.8;100.0;99390;;;;
2023/01/16 00:08:00;;;;;;;1.9;1.9;;;;;;;4.6;100.0;99390;;;;
2023/01/16 00:09:00;;;;;;;1.9;1.9;;;;;;;4.6;100.0;99390;;;;
2023/01/16 00:10:00;;;;;;;1.9;1.9;;;;;;;4.7;100.0;99390;;;;
2023/01/16 00:11:00;;;;;;;1.9;1.9;;;;;;;4.7;100.0;99390;;;;
2023/01/16 00:12:00;;;;;;;1.9;1.9;;;;;;;4.7;100.0;99380;;;;
2023/01/16 00:13:00;;;;;;;1.9;1.9;;;;;;;4.7;100.0;99380;;;;
2023/01/16 00:14:00;;;;;;;1.9;1.9;;;;;;;4.7;100.0;99380;;;;
2023/01/16 00:15:00;;;;;;;1.9;1.9;;;;;;;4.7;100.0;99380;;;;
2023/01/16 00:16:00;;;;;;;1.9;1.9;;;;;;;4.6;100.0;99370;;;;
2023/01/16 00:17:00;;;;;;;1.9;1.9;;;;;;;4.6;100.0;99370;;;;
2023/01/16 00:18:00;;;;;;;1.9;1.9;;;;;;;4.7;100.0;99380;;;;
2023/01/16 00:19:01;;;;;;;1.9;1.9;;;;;;;4.7;100.0;99380;;;;
2023/01/16 00:20:00;;;;;;;1.9;1.9;;;;;;;4.8;100.0;99370;;;;
2023/01/16 00:21:01;;;;;;;1.9;1.9;;;;;;;4.8;100.0;99370;;;;
2023/01/16 00:22:00;;;;;;;1.8;1.8;;;;;;;4.8;100.0;99370;;;;
2023/01/16 00:23:01;;;;;;;1.8;1.8;;;;;;;4.8;100.0;99370;;;;
2023/01/16 00:24:00;;;;;;;1.8;1.8;;;;;;;4.8;100.0;99370;;;;
2023/01/16 00:25:00;;;;;;;1.8;1.8;;;;;;;4.8;100.0;99370;;;;
2023/01/16 00:26:03;;;;;;;1.8;1.8;;;;;;;4.8;100.0;99370;;;;
2023/01/16 00:27:00;;;;;;;1.8;1.8;;;;;;;4.8;100.0;99370;;;;
2023/01/16 00:28:00;;;;;;;1.8;1.8;;;;;;;4.7;100.0;99370;;;;
2023/01/16 00:29:02;;;;;;;1.8;1.8;;;;;;;4.7;100.0;99370;;;;
2023/01/16 00:30:00;;;;;;;1.8;1.8;;;;;;;4.7;100.0;99360;;;;
2023/01/16 00:31:00;;;;;;;1.8;1.8;;;;;;;4.7;100.0;99360;;;;
2023/01/16 00:32:00;;;;;;;1.8;1.8;;;;;;;4.7;100.0;99360;;;;
2023/01/16 00:33:01;;;;;;;1.8;1.8;;;;;;;4.7;100.0;99360;;;;
2023/01/16 00:34:00;;;;;;;1.8;1.8;;;;;;;4.8;100.0;99360;;;;
2023/01/16 00:35:00;;;;;;;1.8;1.8;;;;;;;4.8;100.0;99360;;;;
2023/01/16 00:36:01;;;;;;;1.8;1.8;;;;;;;4.7;100.0;99360;;;;
2023/01/16 00:37:00;;;;;;;1.8;1.8;;;;;;;4.7;100.0;99360;;;;
2023/01/16 00:38:00;;;;;;;1.8;1.8;;;;;;;4.7;100.0;99350;;;;
2023/01/16 00:39:00;;;;;;;1.8;1.8;;;;;;;4.7;100.0;99350;;;;
2023/01/16 00:40:00;;;;;;;1.8;1.8;;;;;;;4.7;100.0;99350;;;;
2023/01/16 00:41:01;;;;;;;1.8;1.8;;;;;;;4.7;100.0;99350;;;;
2023/01/16 00:42:00;;;;;;;1.9;1.9;;;;;;;4.6;100.0;99350;;;;
2023/01/16 00:43:00;;;;;;;1.9;1.9;;;;;;;4.6;100.0;99350;;;;
2023/01/16 00:44:00;;;;;;;1.9;1.9;;;;;;;4.6;100.0;99350;;;;
2023/01/16 00:45:00;;;;;;;1.9;1.9;;;;;;;4.6;100.0;99350;;;;
2023/01/16 00:46:00;;;;;;;1.9;1.9;;;;;;;4.6;100.0;99350;;;;
2023/01/16 00:47:01;;;;;;;1.9;1.9;;;;;;;4.6;100.0;99350;;;;
2023/01/16 00:48:00;;;;;;;1.9;1.9;;;;;;;4.6;100.0;99350;;;;
2023/01/16 00:49:00;;;;;;;1.9;1.9;;;;;;;4.6;100.0;99350;;;;
2023/01/16 00:50:00;;;;;;;1.9;1.9;;;;;;;4.6;100.0;99340;;;;
2023/01/16 00:51:00;;;;;;;1.9;1.9;;;;;;;4.6;100.0;99340;;;;
2023/01/16 00:52:00;;;;;;;1.9;1.9;;;;;;;4.6;100.0;99340;;;;
2023/01/16 00:53:01;;;;;;;1.9;1.9;;;;;;;4.6;100.0;99340;;;;
2023/01/16 00:54:00;;;;;;;1.9;1.9;;;;;;;4.5;100.0;99340;;;;
2023/01/16 00:55:00;;;;;;;1.9;1.9;;;;;;;4.5;100.0;99340;;;;
2023/01/16 00:56:00;;;;;;;1.9;1.9;;;;;;;4.5;100.0;99340;;;;
2023/01/16 00:57:00;;;;;;;1.9;1.9;;;;;;;4.5;100.0;99340;;;;
2023/01/16 00:58:00;;;;;;;1.9;1.9;;;;;;;4.5;100.0;99330;;;;
2023/01/16 00:59:00;;;;;;;1.9;1.9;;;;;;;4.5;100.0;99330;;;;
2023/01/16 01:00:00;;;;;;;1.9;1.9;;;;;;;4.5;100.0;99330;;;;
2023/01/16 01:01:00;;;;;;;1.9;1.9;;;;;;;4.5;100.0;99330;;;;
2023/01/16 01:02:00;;;;;;;1.8;1.8;;;;;;;4.5;100.0;99330;;;;
2023/01/16 01:03:01;;;;;;;1.8;1.8;;;;;;;4.5;100.0;99330;;;;
2023/01/16 01:04:00;;;;;;;1.8;1.8;;;;;;;4.4;100.0;99330;;;;
2023/01/16 01:05:00;;;;;;;1.8;1.8;;;;;;;4.4;100.0;99330;;;;
2023/01/16 01:06:04;;;;;;;1.8;1.8;;;;;;;4.4;100.0;99320;;;;
2023/01/16 01:07:00;;;;;;;1.8;1.8;;;;;;;4.4;100.0;99320;;;;
2023/01/16 01:08:00;;;;;;;1.8;1.8;;;;;;;4.3;100.0;99320;;;;
2023/01/16 01:09:00;;;;;;;1.8;1.8;;;;;;;4.3;100.0;99320;;;;
2023/01/16 01:10:00;;;;;;;1.8;1.8;;;;;;;4.3;100.0;99310;;;;
2023/01/16 01:11:09;;;;;;;1.8;1.8;;;;;;;4.3;100.0;99310;;;;
2023/01/16 01:12:00;;;;;;;1.8;1.8;;;;;;;4.3;100.0;99310;;;;
2023/01/16 01:13:00;;;;;;;1.8;1.8;;;;;;;4.3;100.0;99310;;;;
2023/01/16 01:14:01;;;;;;;1.8;1.8;;;;;;;4.2;100.0;99310;;;;
2023/01/16 01:15:00;;;;;;;1.8;1.8;;;;;;;4.2;100.0;99310;;;;
2023/01/16 01:16:01;;;;;;;1.8;1.8;;;;;;;4.2;100.0;99300;;;;
2023/01/16 01:17:00;;;;;;;1.8;1.8;;;;;;;4.2;100.0;99300;;;;
2023/01/16 01:18:00;;;;;;;1.8;1.8;;;;;;;4.2;100.0;99300;;;;
2023/01/16 01:19:00;;;;;;;1.8;1.8;;;;;;;4.2;100.0;99300;;;;
2023/01/16 01:20:00;;;;;;;1.8;1.8;;;;;;;4.2;100.0;99290;;;;
2023/01/16 01:21:01;;;;;;;1.8;1.8;;;;;;;4.2;100.0;99290;;;;
2023/01/16 01:22:00;;;;;;;1.8;1.8;;;;;;;4.1;100.0;99300;;;;
2023/01/16 01:23:00;;;;;;;1.8;1.8;;;;;;;4.1;100.0;99300;;;;
2023/01/16 01:24:00;;;;;;;1.8;1.8;;;;;;;4.1;100.0;99290;;;;
2023/01/16 01:25:00;;;;;;;1.8;1.8;;;;;;;4.1;100.0;99290;;;;
2023/01/16 01:26:08;;;;;;;1.8;1.8;;;;;;;4.1;100.0;99290;;;;
2023/01/16 01:27:00;;;;;;;1.8;1.8;;;;;;;4.1;100.0;99290;;;;
2023/01/16 01:28:00;;;;;;;1.8;1.8;;;;;;;3.9;100.0;99290;;;;
2023/01/16 01:29:00;;;;;;;1.8;1.8;;;;;;;3.9;100.0;99290;;;;
2023/01/16 01:30:00;;;;;;;1.8;1.8;;;;;;;4.0;100.0;99290;;;;
2023/01/16 01:31:03;;;;;;;1.8;1.8;;;;;;;4.0;100.0;99290;;;;
2023/01/16 01:32:01;;;;;;;1.8;1.8;;;;;;;3.9;100.0;99280;;;;
2023/01/16 01:33:00;;;;;;;1.8;1.8;;;;;;;3.9;100.0;99280;;;;
2023/01/16 01:34:00;;;;;;;1.8;1.8;;;;;;;3.9;100.0;99270;;;;
2023/01/16 01:35:00;;;;;;;1.8;1.8;;;;;;;3.9;100.0;99270;;;;
2023/01/16 01:36:00;;;;;;;1.8;1.8;;;;;;;3.9;100.0;99270;;;;
2023/01/16 01:37:02;;;;;;;1.8;1.8;;;;;;;3.9;100.0;99270;;;;
2023/01/16 01:38:00;;;;;;;1.8;1.8;;;;;;;3.9;100.0;99260;;;;
2023/01/16 01:39:00;;;;;;;1.8;1.8;;;;;;;3.9;100.0;99260;;;;
2023/01/16 01:40:00;;;;;;;1.8;1.8;;;;;;;3.9;100.0;99250;;;;
2023/01/16 01:41:00;;;;;;;1.8;1.8;;;;;;;3.9;100.0;99250;;;;
2023/01/16 01:43:00;;;;;;;2.2;2.2;;;;;;;3.8;100.0;99260;;;;
2023/01/16 01:44:00;;;;;;;2.2;2.2;;;;;;;3.8;100.0;99250;;;;
2023/01/16 01:45:05;;;;;;;2.2;2.2;;;;;;;3.8;100.0;99250;;;;
2023/01/16 01:46:00;;;;;;;2.2;2.2;;;;;;;3.8;100.0;99250;;;;
2023/01/16 01:47:00;;;;;;;2.2;2.2;;;;;;;3.8;100.0;99250;;;;
2023/01/16 01:48:10;;;;;;;2.2;2.2;;;;;;;3.7;100.0;99240;;;;
2023/01/16 01:49:04;;;;;;;2.2;2.2;;;;;;;3.7;100.0;99240;;;;
2023/01/16 01:50:02;;;;;;;2.2;2.2;;;;;;;3.7;100.0;99240;;;;
2023/01/16 01:51:04;;;;;;;2.2;2.2;;;;;;;3.7;100.0;99230;;;;
2023/01/16 01:52:02;;;;;;;2.2;2.2;;;;;;;3.7;100.0;99230;;;;
2023/01/16 01:53:03;;;;;;;2.2;2.2;;;;;;;3.6;100.0;99230;;;;
2023/01/16 01:54:05;;;;;;;2.2;2.2;;;;;;;3.6;100.0;99230;;;;
2023/01/16 01:55:03;;;;;;;2.2;2.2;;;;;;;3.6;100.0;99230;;;;
2023/01/16 01:56:07;;;;;;;2.2;2.2;;;;;;;3.7;100.0;99230;;;;
2023/01/16 01:57:03;;;;;;;2.2;2.2;;;;;;;3.6;100.0;99220;;;;
2023/01/16 01:58:01;;;;;;;2.2;2.2;;;;;;;3.6;100.0;99220;;;;
2023/01/16 01:59:03;;;;;;;2.2;2.2;;;;;;;3.6;100.0;99220;;;;
2023/01/16 02:00:03;;;;;;;2.2;2.2;;;;;;;3.6;100.0;99220;;;;
2023/01/16 02:01:01;;;;;;;2.2;2.2;;;;;;;3.6;100.0;99220;;;;
2023/01/16 02:02:01;;;;;;;2.1;2.1;;;;;;;3.7;100.0;99210;;;;
2023/01/16 02:03:02;;;;;;;2.1;2.1;;;;;;;3.7;100.0;99210;;;;
2023/01/16 02:04:02;;;;;;;2.1;2.1;;;;;;;3.8;100.0;99210;;;;
2023/01/16 02:05:03;;;;;;;2.1;2.1;;;;;;;3.8;100.0;99210;;;;
2023/01/16 02:06:02;;;;;;;2.1;2.1;;;;;;;3.7;100.0;99200;;;;
2023/01/16 02:07:03;;;;;;;2.1;2.1;;;;;;;3.7;100.0;99200;;;;
2023/01/16 02:08:01;;;;;;;2.1;2.1;;;;;;;3.5;100.0;99190;;;;
2023/01/16 02:09:01;;;;;;;2.1;2.1;;;;;;;3.5;100.0;99190;;;;
2023/01/16 02:10:06;;;;;;;2.1;2.1;;;;;;;3.5;100.0;99190;;;;
2023/01/16 02:11:03;;;;;;;2.1;2.1;;;;;;;3.5;100.0;99190;;;;
2023/01/16 02:12:04;;;;;;;2.1;2.1;;;;;;;3.5;100.0;99190;;;;
2023/01/16 02:13:01;;;;;;;2.1;2.1;;;;;;;3.5;100.0;99190;;;;
2023/01/16 02:14:04;;;;;;;2.1;2.1;;;;;;;3.6;100.0;99180;;;;
2023/01/16 02:15:01;;;;;;;2.1;2.1;;;;;;;3.6;100.0;99180;;;;
2023/01/16 02:20:10;;;;;;;2.1;2.1;;;;;;;3.3;100.0;99170;;;;
2023/01/16 02:21:10;;;;;;;2.3;2.3;;;;;;;3.3;100.0;99170;;;;
2023/01/16 02:22:08;;;;;;;2.3;2.3;;;;;;;3.3;100.0;99170;;;;
2023/01/16 02:23:10;;;;;;;2.3;2.3;;;;;;;3.3;100.0;99170;;;;
2023/01/16 02:24:10;;;;;;;2.3;2.3;;;;;;;3.3;100.0;99170;;;;
2023/01/16 02:25:01;;;;;;;2.3;2.3;;;;;;;3.3;100.0;99170;;;;
2023/01/16 02:26:10;;;;;;;2.3;2.3;;;;;;;3.3;100.0;99160;;;;
2023/01/16 02:27:01;;;;;;;2.3;2.3;;;;;;;3.3;100.0;99160;;;;
2023/01/16 02:28:10;;;;;;;2.3;2.3;;;;;;;3.3;100.0;99150;;;;
2023/01/16 02:29:03;;;;;;;2.3;2.3;;;;;;;3.2;100.0;99150;;;;
2023/01/16 02:30:07;;;;;;;2.3;2.3;;;;;;;3.2;100.0;99150;;;;
2023/01/16 02:31:09;;;;;;;2.3;2.3;;;;;;;3.2;100.0;99150;;;;
2023/01/16 02:32:05;;;;;;;2.3;2.3;;;;;;;3.2;100.0;99150;;;;
2023/01/16 02:33:01;;;;;;;2.3;2.3;;;;;;;3.2;100.0;99150;;;;
2023/01/16 02:34:00;;;;;;;2.3;2.3;;;;;;;3.2;100.0;99140;;;;
2023/01/16 02:35:08;;;;;;;2.3;2.3;;;;;;;3.2;100.0;99130;;;;
2023/01/16 02:36:00;;;;;;;2.3;2.3;;;;;;;3.2;100.0;99130;;;;
2023/01/16 02:37:10;;;;;;;2.3;2.3;;;;;;;3.3;100.0;99130;;;;
2023/01/16 02:38:04;;;;;;;2.3;2.3;;;;;;;3.3;100.0;99130;;;;
2023/01/16 02:39:01;;;;;;;2.3;2.3;;;;;;;3.3;100.0;99130;;;;
2023/01/16 02:40:08;;;;;;;2.3;2.3;;;;;;;3.2;100.0;99130;;;;
2023/01/16 02:41:10;;;;;;;2.1;2.1;;;;;;;3.2;100.0;99120;;;;
2023/01/16 02:42:10;;;;;;;2.1;2.1;;;;;;;3.2;100.0;99120;;;;
2023/01/16 02:43:05;;;;;;;2.1;2.1;;;;;;;3.3;100.0;99110;;;;
2023/01/16 02:44:10;;;;;;;2.1;2.1;;;;;;;3.3;100.0;99110;;;;
2023/01/16 02:45:04;;;;;;;2.1;2.1;;;;;;;3.2;100.0;99110;;;;
2023/01/16 02:46:10;;;;;;;2.1;2.1;;;;;;;3.2;100.0;99110;;;;
2023/01/16 02:47:10;;;;;;;2.1;2.1;;;;;;;3.2;100.0;99110;;;;
2023/01/16 02:48:07;;;;;;;2.1;2.1;;;;;;;3.2;100.0;99110;;;;
2023/01/16 02:49:01;;;;;;;2.1;2.1;;;;;;;3.2;100.0;99110;;;;
2023/01/16 02:50:10;;;;;;;2.1;2.1;;;;;;;3.2;100.0;99100;;;;
2023/01/16 02:51:04;;;;;;;2.1;2.1;;;;;;;3.2;100.0;99100;;;;
2023/01/16 02:52:01;;;;;;;2.1;2.1;;;;;;;3.2;100.0;99100;;;;
2023/01/16 02:53:12;;;;;;;2.1;2.1;;;;;;;3.2;100.0;99090;;;;
2023/01/16 02:54:10;;;;;;;2.1;2.1;;;;;;;3.2;100.0;99090;;;;
2023/01/16 02:55:04;;;;;;;2.1;2.1;;;;;;;3.1;100.0;99080;;;;
2023/01/16 02:56:07;;;;;;;2.1;2.1;;;;;;;3.1;100.0;99080;;;;
2023/01/16 02:57:05;;;;;;;2.1;2.1;;;;;;;3.0;100.0;99070;;;;
2023/01/16 02:58:02;;;;;;;2.1;2.1;;;;;;;3.0;100.0;99070;;;;
2023/01/16 02:59:00;;;;;;;2.1;2.1;;;;;;;3.0;100.0;99070;;;;
2023/01/16 03:00:02;;;;;;;2.1;2.1;;;;;;;3.1;100.0;99070;;;;
2023/01/16 03:01:00;;;;;;;2.3;2.3;;;;;;;3.1;100.0;99070;;;;
2023/01/16 03:02:02;;;;;;;2.3;2.3;;;;;;;3.1;100.0;99060;;;;
2023/01/16 03:03:00;;;;;;;2.3;2.3;;;;;;;3.1;100.0;99060;;;;
2023/01/16 03:04:00;;;;;;;2.3;2.3;;;;;;;3.2;100.0;99050;;;;
2023/01/16 03:05:00;;;;;;;2.3;2.3;;;;;;;3.2;100.0;99050;;;;
2023/01/16 03:06:06;;;;;;;2.3;2.3;;;;;;;3.2;100.0;99040;;;;
2023/01/16 03:07:07;;;;;;;2.3;2.3;;;;;;;3.1;100.0;99040;;;;
2023/01/16 03:08:10;;;;;;;2.3;2.3;;;;;;;3.1;100.0;99040;;;;
2023/01/16 03:09:01;;;;;;;2.3;2.3;;;;;;;3.1;100.0;99040;;;;
2023/01/16 03:10:06;;;;;;;2.3;2.3;;;;;;;3.0;100.0;99030;;;;
2023/01/16 03:11:05;;;;;;;2.3;2.3;;;;;;;3.1;100.0;99030;;;;
2023/01/16 03:12:10;;;;;;;2.3;2.3;;;;;;;3.1;100.0;99030;;;;
2023/01/16 03:13:10;;;;;;;2.3;2.3;;;;;;;3.0;100.0;99030;;;;
2023/01/16 03:14:01;;;;;;;2.3;2.3;;;;;;;3.0;100.0;99030;;;;
2023/01/16 03:15:05;;;;;;;2.3;2.3;;;;;;;3.0;100.0;99030;;;;
2023/01/16 03:16:10;;;;;;;2.3;2.3;;;;;;;3.0;100.0;99030;;;;
2023/01/16 03:17:00;;;;;;;2.3;2.3;;;;;;;3.0;100.0;99030;;;;
2023/01/16 03:18:01;;;;;;;2.3;2.3;;;;;;;3.0;100.0;99020;;;;
2023/01/16 03:19:08;;;;;;;2.3;2.3;;;;;;;3.0;100.0;99020;;;;
2023/01/16 03:20:01;;;;;;;2.3;2.3;;;;;;;3.0;100.0;99020;;;;
2023/01/16 03:21:00;;;;;;;2.2;2.2;;;;;;;3.0;100.0;99020;;;;
2023/01/16 03:22:00;;;;;;;2.2;2.2;;;;;;;3.0;100.0;99010;;;;
2023/01/16 03:23:06;;;;;;;2.2;2.2;;;;;;;3.1;100.0;99010;;;;
2023/01/16 03:24:07;;;;;;;2.2;2.2;;;;;;;3.1;100.0;99010;;;;
2023/01/16 03:25:04;;;;;;;2.2;2.2;;;;;;;3.1;100.0;99000;;;;
2023/01/16 03:26:03;;;;;;;2.2;2.2;;;;;;;3.1;100.0;99000;;;;
2023/01/16 03:27:10;;;;;;;2.2;2.2;;;;;;;2.9;100.0;99000;;;;
2023/01/16 03:28:10;;;;;;;2.2;2.2;;;;;;;2.9;100.0;99000;;;;
2023/01/16 03:29:00;;;;;;;2.2;2.2;;;;;;;2.9;100.0;99000;;;;
2023/01/16 03:30:07;;;;;;;2.2;2.2;;;;;;;3.0;100.0;99000;;;;
2023/01/16 03:31:06;;;;;;;2.2;2.2;;;;;;;3.1;100.0;98990;;;;
2023/01/16 03:32:10;;;;;;;2.2;2.2;;;;;;;3.1;100.0;98990;;;;
2023/01/16 03:33:05;;;;;;;2.2;2.2;;;;;;;3.0;100.0;98990;;;;
2023/01/16 03:34:11;;;;;;;2.2;2.2;;;;;;;3.0;100.0;98990;;;;
2023/01/16 03:35:06;;;;;;;2.2;2.2;;;;;;;3.0;100.0;98980;;;;
2023/01/16 03:36:10;;;;;;;2.2;2.2;;;;;;;3.0;100.0;98980;;;;
2023/01/16 03:37:04;;;;;;;2.2;2.2;;;;;;;3.0;100.0;98980;;;;
2023/01/16 03:38:03;;;;;;;2.2;2.2;;;;;;;3.0;100.0;98980;;;;
2023/01/16 03:39:03;;;;;;;2.2;2.2;;;;;;;3.0;100.0;98970;;;;
2023/01/16 03:40:03;;;;;;;2.2;2.2;;;;;;;3.0;100.0;98970;;;;
2023/01/16 03:41:03;;;;;;;2.4;2.4;;;;;;;3.0;100.0;98970;;;;
2023/01/16 03:42:04;;;;;;;2.4;2.4;;;;;;;3.0;100.0;98970;;;;
2023/01/16 03:43:03;;;;;;;2.4;2.4;;;;;;;3.0;100.0;98970;;;;
2023/01/16 03:44:04;;;;;;;2.4;2.4;;;;;;;3.0;100.0;98960;;;;
2023/01/16 03:45:05;;;;;;;2.4;2.4;;;;;;;3.0;100.0;98960;;;;
2023/01/16 03:46:05;;;;;;;2.4;2.4;;;;;;;3.0;100.0;98960;;;;
2023/01/16 03:47:02;;;;;;;2.4;2.4;;;;;;;3.0;100.0;98960;;;;
2023/01/16 03:48:04;;;;;;;2.4;2.4;;;;;;;2.9;100.0;98950;;;;
2023/01/16 03:49:04;;;;;;;2.4;2.4;;;;;;;2.9;100.0;98940;;;;
2023/01/16 03:50:03;;;;;;;2.4;2.4;;;;;;;2.9;100.0;98940;;;;
2023/01/16 03:51:04;;;;;;;2.4;2.4;;;;;;;2.9;100.0;98930;;;;
2023/01/16 03:52:04;;;;;;;2.4;2.4;;;;;;;2.9;100.0;98930;;;;
2023/01/16 03:53:10;;;;;;;2.4;2.4;;;;;;;3.0;100.0;98930;;;;
2023/01/16 03:54:05;;;;;;;2.4;2.4;;;;;;;3.0;100.0;98930;;;;
2023/01/16 03:55:06;;;;;;;2.4;2.4;;;;;;;2.9;100.0;98930;;;;
2023/01/16 03:56:20;;;;;;;2.4;2.4;;;;;;;2.9;100.0;98930;;;;
2023/01/16 03:57:10;;;;;;;2.4;2.4;;;;;;;3.0;100.0;98920;;;;
2023/01/16 03:58:07;;;;;;;2.4;2.4;;;;;;;3.0;100.0;98920;;;;
2023/01/16 03:59:01;;;;;;;2.4;2.4;;;;;;;3.0;100.0;98920;;;;
2023/01/16 04:00:01;;;;;;;2.4;2.4;;;;;;;2.9;100.0;98910;;;;
2023/01/16 04:01:10;;;;;;;2.4;2.4;;;;;;;2.8;100.0;98900;;;;
2023/01/16 04:02:04;;;;;;;2.4;2.4;;;;;;;2.8;100.0;98900;;;;
2023/01/16 04:03:05;;;;;;;2.4;2.4;;;;;;;2.9;100.0;98890;;;;
2023/01/16 04:04:03;;;;;;;2.4;2.4;;;;;;;2.9;100.0;98890;;;;
2023/01/16 04:05:05;;;;;;;2.4;2.4;;;;;;;2.9;100.0;98890;;;;
2023/01/16 04:06:05;;;;;;;2.4;2.4;;;;;;;2.9;100.0;98890;;;;
2023/01/16 04:07:04;;;;;;;2.4;2.4;;;;;;;2.9;100.0;98890;;;;
2023/01/16 04:08:05;;;;;;;2.4;2.4;;;;;;;2.9;100.0;98890;;;;
2023/01/16 04:09:04;;;;;;;2.4;2.4;;;;;;;2.9;100.0;98880;;;;
2023/01/16 04:10:03;;;;;;;2.4;2.4;;;;;;;2.9;100.0;98880;;;;
2023/01/16 04:11:00;;;;;;;2.4;2.4;;;;;;;2.9;100.0;98880;;;;
2023/01/16 04:12:02;;;;;;;2.4;2.4;;;;;;;3.0;100.0;98880;;;;
2023/01/16 04:13:03;;;;;;;2.4;2.4;;;;;;;2.9;100.0;98860;;;;
2023/01/16 04:14:01;;;;;;;2.4;2.4;;;;;;;2.9;100.0;98860;;;;
2023/01/16 04:15:02;;;;;;;2.4;2.4;;;;;;;2.9;100.0;98860;;;;
2023/01/16 04:16:01;;;;;;;2.4;2.4;;;;;;;2.9;100.0;98860;;;;
2023/01/16 04:17:01;;;;;;;2.4;2.4;;;;;;;2.9;100.0;98860;;;;
2023/01/16 04:18:00;;;;;;;2.4;2.4;;;;;;;2.8;100.0;98850;;;;
2023/01/16 04:19:02;;;;;;;2.4;2.4;;;;;;;2.8;100.0;98850;;;;
2023/01/16 04:20:01;;;;;;;2.4;2.4;;;;;;;2.9;100.0;98850;;;;
2023/01/16 04:21:02;;;;;;;2.4;2.4;;;;;;;2.9;100.0;98850;;;;
2023/01/16 04:22:04;;;;;;;2.4;2.4;;;;;;;3.0;100.0;98840;;;;
2023/01/16 04:23:00;;;;;;;2.4;2.4;;;;;;;3.0;100.0;98840;;;;
2023/01/16 04:24:01;;;;;;;2.4;2.4;;;;;;;3.0;100.0;98830;;;;
2023/01/16 04:25:02;;;;;;;2.4;2.4;;;;;;;3.0;100.0;98830;;;;
2023/01/16 04:26:01;;;;;;;2.4;2.4;;;;;;;3.0;100.0;98820;;;;
2023/01/16 04:27:00;;;;;;;2.4;2.4;;;;;;;3.0;100.0;98820;;;;
2023/01/16 04:28:00;;;;;;;2.4;2.4;;;;;;;3.0;100.0;98820;;;;
2023/01/16 04:29:00;;;;;;;2.4;2.4;;;;;;;3.0;100.0;98820;;;;
2023/01/16 04:30:00;;;;;;;2.4;2.4;;;;;;;3.0;100.0;98820;;;;
2023/01/16 04:31:00;;;;;;;2.4;2.4;;;;;;;3.0;100.0;98820;;;;
2023/01/16 04:32:00;;;;;;;2.4;2.4;;;;;;;3.0;100.0;98810;;;;
2023/01/16 04:33:01;;;;;;;2.4;2.4;;;;;;;3.0;100.0;98810;;;;
2023/01/16 04:34:00;;;;;;;2.4;2.4;;;;;;;3.0;100.0;98800;;;;
2023/01/16 04:35:00;;;;;;;2.4;2.4;;;;;;;3.0;100.0;98800;;;;
2023/01/16 04:36:00;;;;;;;2.4;2.4;;;;;;;3.1;100.0;98800;;;;
2023/01/16 04:37:00;;;;;;;2.4;2.4;;;;;;;3.1;100.0;98800;;;;
2023/01/16 04:38:00;;;;;;;2.4;2.4;;;;;;;3.2;100.0;98790;;;;
2023/01/16 04:39:00;;;;;;;2.4;2.4;;;;;;;3.2;100.0;98790;;;;
2023/01/16 04:40:00;;;;;;;2.4;2.4;;;;;;;3.2;100.0;98780;;;;
2023/01/16 04:41:00;;;;;;;2.3;2.3;;;;;;;3.2;100.0;98780;;;;
2023/01/16 04:42:00;;;;;;;2.3;2.3;;;;;;;3.2;100.0;98770;;;;
2023/01/16 04:43:00;;;;;;;2.3;2.3;;;;;;;3.2;100.0;98770;;;;
2023/01/16 04:44:00;;;;;;;2.3;2.3;;;;;;;3.1;100.0;98760;;;;
2023/01/16 04:45:01;;;;;;;2.3;2.3;;;;;;;3.1;100.0;98760;;;;
2023/01/16 04:46:00;;;;;;;2.3;2.3;;;;;;;3.2;100.0;98760;;;;
2023/01/16 04:47:00;;;;;;;2.3;2.3;;;;;;;3.2;100.0;98760;;;;
2023/01/16 04:48:00;;;;;;;2.3;2.3;;;;;;;3.1;100.0;98750;;;;
2023/01/16 04:49:00;;;;;;;2.3;2.3;;;;;;;3.1;100.0;98750;;;;
2023/01/16 04:50:00;;;;;;;2.3;2.3;;;;;;;3.2;100.0;98740;;;;
2023/01/16 04:51:00;;;;;;;2.3;2.3;;;;;;;3.2;100.0;98740;;;;
2023/01/16 04:52:00;;;;;;;2.3;2.3;;;;;;;3.2;100.0;98730;;;;
2023/01/16 04:53:00;;;;;;;2.3;2.3;;;;;;;3.2;100.0;98730;;;;
2023/01/16 04:54:01;;;;;;;2.3;2.3;;;;;;;3.2;100.0;98730;;;;
2023/01/16 04:55:00;;;;;;;2.3;2.3;;;;;;;3.2;100.0;98730;;;;
2023/01/16 04:56:01;;;;;;;2.3;2.3;;;;;;;3.1;100.0;98720;;;;
2023/01/16 04:57:01;;;;;;;2.3;2.3;;;;;;;3.1;100.0;98720;;;;
2023/01/16 04:58:00;;;;;;;2.3;2.3;;;;;;;3.3;100.0;98710;;;;
2023/01/16 04:59:00;;;;;;;2.3;2.3;;;;;;;3.3;100.0;98710;;;;
2023/01/16 05:00:00;;;;;;;2.3;2.3;;;;;;;3.3;100.0;98710;;;;
2023/01/16 05:01:00;;;;;;;2.3;2.3;;;;;;;3.3;100.0;98710;;;;
2023/01/16 05:02:00;;;;;;;2.3;2.3;;;;;;;3.4;100.0;98710;;;;
2023/01/16 05:03:00;;;;;;;2.3;2.3;;;;;;;3.4;100.0;98710;;;;
2023/01/16 05:04:01;;;;;;;2.3;2.3;;;;;;;3.4;100.0;98690;;;;
2023/01/16 05:05:00;;;;;;;2.3;2.3;;;;;;;3.4;100.0;98690;;;;
2023/01/16 05:06:00;;;;;;;2.3;2.3;;;;;;;3.3;100.0;98690;;;;
2023/01/16 05:07:00;;;;;;;2.3;2.3;;;;;;;3.3;100.0;98690;;;;
2023/01/16 05:09:01;;;;;;;2.3;2.3;;;;;;;3.2;100.0;98680;;;;
2023/01/16 05:10:00;;;;;;;2.3;2.3;;;;;;;3.2;100.0;98680;;;;
2023/01/16 05:11:01;;;;;;;2.3;2.3;;;;;;;3.2;100.0;98680;;;;
2023/01/16 05:12:00;;;;;;;2.3;2.3;;;;;;;3.3;100.0;98670;;;;
2023/01/16 05:13:00;;;;;;;2.3;2.3;;;;;;;3.3;100.0;98670;;;;
2023/01/16 05:14:01;;;;;;;2.3;2.3;;;;;;;3.2;100.0;98660;;;;
2023/01/16 05:15:00;;;;;;;2.3;2.3;;;;;;;3.2;100.0;98660;;;;
2023/01/16 05:16:00;;;;;;;2.3;2.3;;;;;;;3.3;100.0;98660;;;;
2023/01/16 05:17:00;;;;;;;2.3;2.3;;;;;;;3.3;100.0;98660;;;;
2023/01/16 05:18:00;;;;;;;2.3;2.3;;;;;;;3.3;100.0;98650;;;;
2023/01/16 05:19:00;;;;;;;2.3;2.3;;;;;;;3.3;100.0;98650;;;;
2023/01/16 05:20:00;;;;;;;2.3;2.3;;;;;;;3.2;100.0;98640;;;;
2023/01/16 05:21:00;;;;;;;2.1;2.1;;;;;;;3.2;100.0;98640;;;;
2023/01/16 05:22:00;;;;;;;2.1;2.1;;;;;;;3.1;100.0;98640;;;;
2023/01/16 05:23:00;;;;;;;2.1;2.1;;;;;;;3.1;100.0;98640;;;;
2023/01/16 05:24:00;;;;;;;2.1;2.1;;;;;;;3.2;100.0;98630;;;;
2023/01/16 05:25:00;;;;;;;2.1;2.1;;;;;;;3.2;100.0;98630;;;;
2023/01/16 05:26:01;;;;;;;2.1;2.1;;;;;;;3.3;100.0;98620;;;;
2023/01/16 05:27:00;;;;;;;2.1;2.1;;;;;;;3.3;100.0;98620;;;;
2023/01/16 05:28:00;;;;;;;2.1;2.1;;;;;;;3.2;100.0;98610;;;;
2023/01/16 05:29:00;;;;;;;2.1;2.1;;;;;;;3.2;100.0;98610;;;;
2023/01/16 05:30:00;;;;;;;2.1;2.1;;;;;;;3.2;100.0;98600;;;;
2023/01/16 05:31:01;;;;;;;2.1;2.1;;;;;;;3.2;100.0;98600;;;;
2023/01/16 05:32:00;;;;;;;2.1;2.1;;;;;;;3.2;100.0;98600;;;;
2023/01/16 05:33:02;;;;;;;2.1;2.1;;;;;;;3.2;100.0;98600;;;;
2023/01/16 05:34:00;;;;;;;2.1;2.1;;;;;;;3.2;100.0;98600;;;;
2023/01/16 05:35:01;;;;;;;2.1;2.1;;;;;;;3.2;100.0;98600;;;;
2023/01/16 05:36:00;;;;;;;2.1;2.1;;;;;;;3.2;100.0;98590;;;;
2023/01/16 05:37:00;;;;;;;2.1;2.1;;;;;;;3.2;100.0;98590;;;;
2023/01/16 05:38:00;;;;;;;2.1;2.1;;;;;;;3.2;100.0;98580;;;;
2023/01/16 05:39:01;;;;;;;2.1;2.1;;;;;;;3.2;100.0;98580;;;;
2023/01/16 05:40:01;;;;;;;2.1;2.1;;;;;;;3.2;100.0;98580;;;;
2023/01/16 05:41:00;;;;;;;2.2;2.2;;;;;;;3.2;100.0;98580;;;;
2023/01/16 05:42:00;;;;;;;2.2;2.2;;;;;;;3.3;100.0;98570;;;;
2023/01/16 05:43:00;;;;;;;2.2;2.2;;;;;;;3.3;100.0;98570;;;;
2023/01/16 05:44:00;;;;;;;2.2;2.2;;;;;;;3.3;100.0;98560;;;;
2023/01/16 05:45:00;;;;;;;2.2;2.2;;;;;;;3.3;100.0;98560;;;;
2023/01/16 05:46:02;;;;;;;2.2;2.2;;;;;;;3.3;100.0;98560;;;;
2023/01/16 05:47:00;;;;;;;2.2;2.2;;;;;;;3.3;100.0;98560;;;;
2023/01/16 05:48:00;;;;;;;2.2;2.2;;;;;;;3.2;100.0;98550;;;;
2023/01/16 05:49:00;;;;;;;2.2;2.2;;;;;;;3.2;100.0;98550;;;;
2023/01/16 05:50:00;;;;;;;2.2;2.2;;;;;;;3.2;100.0;98540;;;;
2023/01/16 05:51:01;;;;;;;2.2;2.2;;;;;;;3.2;100.0;98540;;;;
2023/01/16 05:52:00;;;;;;;2.2;2.2;;;;;;;3.4;100.0;98540;;;;
2023/01/16 05:53:01;;;;;;;2.2;2.2;;;;;;;3.4;100.0;98540;;;;
2023/01/16 05:54:00;;;;;;;2.2;2.2;;;;;;;3.4;100.0;98530;;;;
2023/01/16 05:55:00;;;;;;;2.2;2.2;;;;;;;3.4;100.0;98530;;;;
2023/01/16 05:56:05;;;;;;;2.2;2.2;;;;;;;3.5;100.0;98520;;;;
2023/01/16 05:57:00;;;;;;;2.2;2.2;;;;;;;3.5;100.0;98520;;;;
2023/01/16 05:58:00;;;;;;;2.2;2.2;;;;;;;3.5;100.0;98510;;;;
2023/01/16 05:59:00;;;;;;;2.2;2.2;;;;;;;3.5;100.0;98510;;;;
2023/01/16 06:00:00;;;;;;;2.2;2.2;;;;;;;3.5;100.0;98510;;;;
2023/01/16 06:01:00;;;;;;;2.0;2.0;;;;;;;3.5;100.0;98510;;;;
2023/01/16 06:02:00;;;;;;;2.0;2.0;;;;;;;3.4;100.0;98500;;;;
2023/01/16 06:03:00;;;;;;;2.0;2.0;;;;;;;3.4;100.0;98500;;;;
2023/01/16 06:04:00;;;;;;;2.0;2.0;;;;;;;3.5;100.0;98480;;;;
2023/01/16 06:05:00;;;;;;;2.0;2.0;;;;;;;3.5;100.0;98480;;;;
2023/01/16 06:06:01;;;;;;;2.0;2.0;;;;;;;3.6;100.0;98480;;;;
2023/01/16 06:07:00;;;;;;;2.0;2.0;;;;;;;3.6;100.0;98480;;;;
2023/01/16 06:08:00;;;;;;;2.0;2.0;;;;;;;3.5;100.0;98470;;;;
2023/01/16 06:09:00;;;;;;;2.0;2.0;;;;;;;3.5;100.0;98470;;;;
2023/01/16 06:10:01;;;;;;;2.0;2.0;;;;;;;3.5;100.0;98470;;;;
2023/01/16 06:11:00;;;;;;;2.0;2.0;;;;;;;3.5;100.0;98470;;;;
2023/01/16 06:12:00;;;;;;;2.0;2.0;;;;;;;3.5;100.0;98460;;;;
2023/01/16 06:13:01;;;;;;;2.0;2.0;;;;;;;3.5;100.0;98460;;;;
2023/01/16 06:14:03;;;;;;;2.0;2.0;;;;;;;3.5;100.0;98450;;;;
2023/01/16 06:15:00;;;;;;;2.0;2.0;;;;;;;3.5;100.0;98450;;;;
2023/01/16 06:16:00;;;;;;;2.0;2.0;;;;;;;3.6;100.0;98450;;;;
2023/01/16 06:17:00;;;;;;;2.0;2.0;;;;;;;3.6;100.0;98450;;;;
2023/01/16 06:18:00;;;;;;;2.0;2.0;;;;;;;3.6;100.0;98450;;;;
2023/01/16 06:19:01;;;;;;;2.0;2.0;;;;;;;3.6;100.0;98450;;;;
2023/01/16 06:20:00;;;;;;;2.0;2.0;;;;;;;3.6;100.0;98440;;;;
2023/01/16 06:21:00;;;;;;;2.6;2.5;;;;;;;3.6;100.0;98440;;;;
2023/01/16 06:22:00;;;;;;;2.6;2.5;;;;;;;3.6;100.0;98440;;;;
2023/01/16 06:23:00;;;;;;;2.6;2.5;;;;;;;3.6;100.0;98440;;;;
2023/01/16 06:24:00;;;;;;;2.6;2.5;;;;;;;3.6;100.0;98440;;;;
2023/01/16 06:25:00;;;;;;;2.6;2.5;;;;;;;3.6;100.0;98440;;;;
2023/01/16 06:26:02;;;;;;;2.6;2.5;;;;;;;3.6;100.0;98440;;;;
2023/01/16 06:27:00;;;;;;;2.6;2.5;;;;;;;3.6;100.0;98440;;;;
2023/01/16 06:28:00;;;;;;;2.6;2.5;;;;;;;3.6;100.0;98440;;;;
2023/01/16 06:29:03;;;;;;;2.6;2.5;;;;;;;3.6;100.0;98430;;;;
2023/01/16 06:30:00;;;;;;;2.6;2.5;;;;;;;3.6;100.0;98430;;;;
2023/01/16 06:31:00;;;;;;;2.6;2.5;;;;;;;3.6;100.0;98430;;;;
2023/01/16 06:32:00;;;;;;;2.6;2.5;;;;;;;3.7;100.0;98440;;;;
2023/01/16 06:33:00;;;;;;;2.6;2.5;;;;;;;3.7;100.0;98440;;;;
2023/01/16 06:34:00;;;;;;;2.6;2.5;;;;;;;3.8;100.0;98440;;;;
2023/01/16 06:35:00;;;;;;;2.6;2.5;;;;;;;3.8;100.0;98440;;;;
2023/01/16 06:36:00;;;;;;;2.6;2.5;;;;;;;3.7;100.0;98430;;;;
2023/01/16 06:37:00;;;;;;;2.6;2.5;;;;;;;3.7;100.0;98430;;;;
2023/01/16 06:38:00;;;;;;;2.6;2.5;;;;;;;3.6;100.0;98430;;;;
2023/01/16 06:39:00;;;;;;;2.6;2.5;;;;;;;3.6;100.0;98430;;;;
2023/01/16 06:40:01;;;;;;;2.6;2.5;;;;;;;3.8;100.0;98430;;;;
2023/01/16 06:41:00;;;;;;;2.0;2.0;;;;;;;3.8;100.0;98430;;;;